Time;durP1;ratioP1;P1;durP2;ratioP2;P2;SDS_P1;SDS_P2;PMS_P1;PMS_P2;Temp;Humidity;BMP_temperature;BMP_pressure;BME280_temperature;BME280_humidity;BME280_pressure;Samples;Min_cycle;Max_cycle;Signal;HPM_P1;HPM_P2
2021/11/11 00:02:24;;;;;;;17.00;10.63;;;17.60;99.90;;;;;;5096762;28;20564;-61
2021/11/11 00:04:52;;;;;;;16.63;9.90;;;17.60;99.90;;;;;;5112030;28;20205;-61
2021/11/11 00:07:19;;;;;;;16.88;10.38;;;17.50;99.90;;;;;;5111439;28;20050;-62
2021/11/11 00:09:47;;;;;;;15.95;10.27;;;17.50;99.90;;;;;;5079895;28;20036;-61
2021/11/11 00:12:14;;;;;;;19.70;10.50;;;17.40;99.90;;;;;;5108810;28;20028;-61
2021/11/11 00:14:42;;;;;;;18.23;8.82;;;17.40;99.90;;;;;;5112733;28;20040;-62
2021/11/11 00:17:09;;;;;;;19.27;9.57;;;17.40;99.90;;;;;;5111193;28;20123;-61
2021/11/11 00:19:37;;;;;;;17.42;9.57;;;17.40;99.90;;;;;;5078142;28;20050;-63
2021/11/11 00:22:05;;;;;;;13.23;9.55;;;17.40;99.90;;;;;;5077443;28;20520;-61
2021/11/11 00:24:33;;;;;;;20.17;10.45;;;17.30;99.90;;;;;;5092224;28;20048;-61
2021/11/11 00:27:01;;;;;;;14.93;9.82;;;17.30;99.90;;;;;;5109815;28;20147;-61
2021/11/11 00:29:28;;;;;;;18.70;9.93;;;17.30;99.90;;;;;;5071397;28;20048;-61
2021/11/11 00:31:56;;;;;;;17.95;10.35;;;17.20;99.90;;;;;;5078949;28;20042;-61
2021/11/11 00:34:23;;;;;;;17.48;11.25;;;17.20;99.90;;;;;;5084650;28;20116;-61
2021/11/11 00:36:51;;;;;;;16.52;10.63;;;17.20;99.90;;;;;;5090760;28;20134;-61
2021/11/11 00:39:18;;;;;;;23.58;10.45;;;17.20;99.90;;;;;;5091823;28;20065;-61
2021/11/11 00:41:46;;;;;;;20.17;10.02;;;17.20;99.90;;;;;;5108037;28;20035;-61
2021/11/11 00:44:14;;;;;;;18.88;10.27;;;17.20;99.90;;;;;;5087226;28;20107;-61
2021/11/11 00:46:42;;;;;;;15.63;9.32;;;17.10;99.90;;;;;;5094659;28;20114;-66
2021/11/11 00:49:09;;;;;;;20.58;8.95;;;17.20;99.90;;;;;;5082301;28;20463;-61
2021/11/11 00:51:38;;;;;;;29.25;10.57;;;17.20;99.90;;;;;;5091135;28;20044;-62
2021/11/11 00:54:07;;;;;;;13.40;8.88;;;17.20;99.90;;;;;;5073881;28;20050;-61
2021/11/11 00:56:34;;;;;;;15.57;9.00;;;17.20;99.90;;;;;;5094955;28;20043;-63
2021/11/11 00:59:04;;;;;;;14.77;9.05;;;17.20;99.90;;;;;;5109486;28;20497;-62
2021/11/11 01:01:32;;;;;;;14.13;8.70;;;17.20;99.90;;;;;;5092073;28;20036;-62
2021/11/11 01:04:00;;;;;;;18.35;8.40;;;17.20;99.90;;;;;;5077779;28;20046;-62
2021/11/11 01:06:29;;;;;;;11.75;7.03;;;17.10;99.90;;;;;;5094410;28;20097;-61
2021/11/11 01:08:57;;;;;;;13.73;7.80;;;17.10;99.90;;;;;;5110954;28;20440;-61
2021/11/11 01:11:26;;;;;;;14.23;7.60;;;17.10;99.90;;;;;;5095257;28;20067;-61
2021/11/11 01:13:54;;;;;;;12.60;7.53;;;17.20;99.90;;;;;;5077800;28;20493;-61
2021/11/11 01:16:21;;;;;;;11.90;7.13;;;17.20;99.90;;;;;;5111056;28;20043;-61
2021/11/11 01:18:49;;;;;;;12.23;7.20;;;17.20;99.90;;;;;;5098928;28;20047;-61
2021/11/11 01:21:17;;;;;;;11.85;8.35;;;17.20;99.90;;;;;;5095897;28;20042;-61
2021/11/11 01:23:45;;;;;;;9.63;7.18;;;17.20;99.90;;;;;;5093142;28;20043;-62
2021/11/11 01:26:13;;;;;;;14.88;7.60;;;17.20;99.90;;;;;;5078363;28;20409;-62
2021/11/11 01:28:41;;;;;;;10.68;7.15;;;17.20;99.90;;;;;;5094382;28;20047;-62
2021/11/11 01:31:13;;;;;;;10.80;7.10;;;17.20;99.90;;;;;;5080861;28;20040;-62
2021/11/11 01:33:45;;;;;;;10.10;8.73;;;17.20;99.90;;;;;;5077566;28;20503;-61
2021/11/11 01:36:13;;;;;;;13.80;7.68;;;17.20;99.90;;;;;;5091056;28;20036;-61
2021/11/11 01:38:48;;;;;;;11.35;7.15;;;17.10;99.90;;;;;;5075572;28;20040;-61
2021/11/11 01:41:18;;;;;;;12.85;6.63;;;17.10;99.90;;;;;;5094590;28;20046;-61
2021/11/11 01:43:46;;;;;;;13.02;6.90;;;17.00;99.90;;;;;;5093546;28;20039;-61
2021/11/11 01:46:16;;;;;;;11.15;8.18;;;16.90;99.90;;;;;;5094755;28;20028;-61
2021/11/11 01:48:44;;;;;;;12.73;7.55;;;16.80;99.90;;;;;;5077685;28;20412;-61
2021/11/11 01:51:18;;;;;;;10.88;7.53;;;16.80;99.90;;;;;;5078435;28;20067;-61
2021/11/11 01:53:56;;;;;;;13.27;8.85;;;16.70;99.90;;;;;;5095713;28;20039;-61
2021/11/11 01:56:24;;;;;;;13.80;8.00;;;16.70;99.90;;;;;;5079005;28;20035;-61
2021/11/11 01:58:56;;;;;;;13.85;8.05;;;16.70;99.90;;;;;;5095393;28;20050;-61
2021/11/11 02:01:25;;;;;;;13.65;8.10;;;16.70;99.90;;;;;;5095500;28;20114;-61
2021/11/11 02:03:53;;;;;;;13.75;7.90;;;16.70;99.90;;;;;;5095871;28;20093;-61
2021/11/11 02:06:40;;;;;;;11.02;7.22;;;16.70;99.90;;;;;;5098230;28;20050;-61
2021/11/11 02:09:15;;;;;;;13.52;8.98;;;16.70;99.90;;;;;;5099211;28;20046;-61
2021/11/11 02:11:54;;;;;;;10.93;8.15;;;16.70;99.90;;;;;;5099386;28;20039;-61
2021/11/11 02:14:22;;;;;;;15.15;8.30;;;16.70;99.90;;;;;;5082529;28;20058;-61
2021/11/11 02:16:50;;;;;;;11.82;8.07;;;16.60;99.90;;;;;;5082502;28;20082;-61
2021/11/11 02:19:29;;;;;;;11.57;7.68;;;16.60;99.90;;;;;;5098839;28;20043;-61
2021/11/11 02:21:57;;;;;;;10.48;8.15;;;16.60;99.90;;;;;;5082150;28;20044;-61
2021/11/11 02:24:34;;;;;;;13.55;8.20;;;16.60;99.90;;;;;;5082113;28;20370;-62
2021/11/11 02:27:13;;;;;;;9.45;6.57;;;16.60;99.90;;;;;;5081979;28;20058;-61
2021/11/11 02:29:41;;;;;;;12.70;7.57;;;16.60;99.90;;;;;;5066032;28;20055;-61
2021/11/11 02:32:09;;;;;;;10.55;6.32;;;16.60;99.90;;;;;;5082009;28;20078;-61
2021/11/11 02:34:42;;;;;;;11.30;8.18;;;16.60;99.90;;;;;;5082724;28;20039;-61
2021/11/11 02:37:11;;;;;;;8.45;6.20;;;16.50;99.90;;;;;;5098633;28;20093;-61
2021/11/11 02:40:09;;;;;;;11.88;8.02;;;16.50;99.90;;;;;;5085464;28;20185;-62
2021/11/11 02:42:42;;;;;;;10.38;7.47;;;16.50;99.90;;;;;;5098664;28;20164;-61
2021/11/11 02:45:26;;;;;;;10.13;7.53;;;16.50;99.90;;;;;;5098902;28;20600;-61
2021/11/11 02:47:58;;;;;;;9.55;6.88;;;16.50;99.90;;;;;;5082114;28;20048;-61
2021/11/11 02:50:29;;;;;;;8.77;6.55;;;16.50;99.90;;;;;;5081443;28;20367;-61
2021/11/11 02:52:58;;;;;;;9.80;6.85;;;16.50;99.90;;;;;;5098453;28;20050;-61
2021/11/11 02:55:27;;;;;;;8.48;5.78;;;16.50;99.90;;;;;;5080981;28;20124;-61
2021/11/11 02:57:57;;;;;;;17.42;6.40;;;16.40;99.90;;;;;;5081622;28;20108;-61
2021/11/11 03:00:29;;;;;;;9.07;6.45;;;16.40;99.90;;;;;;5098338;28;20134;-61
2021/11/11 03:02:57;;;;;;;12.35;7.63;;;16.50;99.90;;;;;;5116436;28;20127;-61
2021/11/11 03:05:34;;;;;;;11.32;7.60;;;16.50;99.90;;;;;;5098163;28;20036;-61
2021/11/11 03:08:07;;;;;;;11.95;7.18;;;16.50;99.90;;;;;;5098097;28;20035;-61
2021/11/11 03:10:41;;;;;;;11.90;6.75;;;16.50;99.90;;;;;;5081259;28;20543;-61
2021/11/11 03:13:11;;;;;;;12.57;6.65;;;16.50;99.90;;;;;;5081675;28;20044;-61
2021/11/11 03:15:42;;;;;;;10.48;6.68;;;16.50;99.90;;;;;;5065090;28;20052;-61
2021/11/11 03:18:11;;;;;;;11.20;7.55;;;16.40;99.90;;;;;;5081048;28;20062;-61
2021/11/11 03:20:40;;;;;;;10.13;6.65;;;16.40;99.90;;;;;;5080855;28;20077;-61
2021/11/11 03:23:09;;;;;;;10.35;7.70;;;16.40;99.90;;;;;;5064644;28;20142;-61
2021/11/11 03:25:37;;;;;;;10.55;6.15;;;16.40;99.90;;;;;;5081307;28;20039;-61
2021/11/11 03:28:06;;;;;;;10.27;5.78;;;16.30;99.90;;;;;;5097894;28;20049;-61
2021/11/11 03:30:36;;;;;;;10.45;6.63;;;16.30;99.90;;;;;;5097682;28;20036;-61
2021/11/11 03:33:06;;;;;;;8.93;6.95;;;16.20;99.90;;;;;;5115850;28;20042;-61
2021/11/11 03:35:40;;;;;;;8.50;6.38;;;16.20;99.90;;;;;;5065156;28;20568;-61
2021/11/11 03:38:09;;;;;;;7.50;6.38;;;16.20;99.90;;;;;;5097637;28;20047;-61
2021/11/11 03:40:41;;;;;;;7.32;5.35;;;16.10;99.90;;;;;;5115948;28;20069;-61
2021/11/11 03:43:16;;;;;;;12.20;6.50;;;16.10;99.90;;;;;;5097507;28;20040;-61
2021/11/11 03:45:53;;;;;;;6.80;5.05;;;16.10;99.90;;;;;;5097565;28;20489;-61
2021/11/11 03:48:21;;;;;;;6.93;5.53;;;16.10;99.90;;;;;;5080329;28;20055;-61
2021/11/11 03:50:49;;;;;;;8.85;6.32;;;16.10;99.90;;;;;;5097804;28;20351;-61
2021/11/11 03:53:17;;;;;;;8.35;5.50;;;16.00;99.90;;;;;;5097381;28;20070;-61
2021/11/11 03:55:45;;;;;;;6.93;5.60;;;16.00;99.90;;;;;;5080503;28;20474;-61
2021/11/11 03:58:17;;;;;;;6.68;5.07;;;16.10;99.90;;;;;;5080870;28;20052;-61
2021/11/11 04:00:46;;;;;;;7.40;5.55;;;16.00;99.90;;;;;;5096965;28;20067;-61
2021/11/11 04:03:15;;;;;;;6.97;4.68;;;16.00;99.90;;;;;;5097180;28;20042;-61
2021/11/11 04:05:44;;;;;;;8.88;5.97;;;16.00;99.90;;;;;;5079879;28;20142;-61
2021/11/11 04:08:16;;;;;;;8.82;5.63;;;16.00;99.90;;;;;;5097076;28;20031;-61
2021/11/11 04:10:48;;;;;;;7.72;5.10;;;16.00;99.90;;;;;;5081041;28;20393;-61
2021/11/11 04:13:21;;;;;;;7.55;5.18;;;16.00;99.90;;;;;;5080363;28;20044;-61
2021/11/11 04:15:50;;;;;;;7.40;5.05;;;15.90;99.90;;;;;;5079856;28;20401;-61
2021/11/11 04:18:18;;;;;;;7.53;5.10;;;15.90;99.90;;;;;;5114985;28;20054;-61
2021/11/11 04:20:45;;;;;;;5.88;4.65;;;15.90;99.90;;;;;;5079774;28;20093;-61
2021/11/11 04:23:16;;;;;;;6.78;4.90;;;15.80;99.90;;;;;;5096736;28;20044;-61
2021/11/11 04:28:38;;;;;;;7.38;4.78;;;15.80;99.90;;;;;;5079490;28;20040;-61
2021/11/11 04:31:16;;;;;;;6.65;4.90;;;15.90;99.90;;;;;;5080431;28;20042;-61
2021/11/11 04:33:44;;;;;;;8.43;4.68;;;15.90;99.90;;;;;;5096745;28;20055;-61
2021/11/11 04:36:46;;;;;;;8.15;5.00;;;15.80;99.90;;;;;;5079914;28;20436;-61
2021/11/11 04:39:28;;;;;;;7.63;5.40;;;15.80;99.90;;;;;;5095629;28;20086;-62
2021/11/11 04:52:42;;;;;;;6.18;4.55;;;15.40;99.90;;;;;;5096423;28;20375;-61
2021/11/11 05:03:21;;;;;;;9.15;5.63;;;15.20;99.90;;;;;;5095983;28;20124;-61
2021/11/11 05:05:48;;;;;;;8.18;5.82;;;15.20;99.90;;;;;;5079528;28;20043;-61
2021/11/11 05:08:16;;;;;;;6.85;5.18;;;15.20;99.90;;;;;;5096127;28;20074;-61
2021/11/11 05:10:49;;;;;;;6.88;5.00;;;15.20;99.90;;;;;;5096042;28;20039;-61
2021/11/11 05:13:17;;;;;;;7.25;4.80;;;15.20;99.90;;;;;;5079410;28;20059;-61
2021/11/11 05:15:46;;;;;;;8.30;4.97;;;15.20;99.90;;;;;;5079398;28;20138;-61
2021/11/11 05:18:15;;;;;;;8.15;5.22;;;15.20;99.90;;;;;;5095964;28;20501;-61
2021/11/11 05:20:43;;;;;;;8.35;5.15;;;15.20;99.90;;;;;;5095698;28;20057;-61
2021/11/11 05:23:11;;;;;;;12.95;5.13;;;15.30;99.90;;;;;;5114228;28;20046;-61
2021/11/11 05:25:42;;;;;;;6.60;5.03;;;15.30;99.90;;;;;;5078951;28;20386;-60
2021/11/11 05:28:12;;;;;;;7.22;5.10;;;15.30;99.90;;;;;;5096004;28;20557;-61
2021/11/11 05:30:39;;;;;;;6.28;4.80;;;15.30;99.90;;;;;;5095655;28;20494;-61
2021/11/11 05:33:08;;;;;;;8.70;5.85;;;15.30;99.90;;;;;;5114016;28;20043;-61
2021/11/11 05:35:35;;;;;;;6.85;5.22;;;15.30;99.90;;;;;;5095779;28;20440;-61
2021/11/11 05:38:03;;;;;;;7.60;6.68;;;15.40;99.90;;;;;;5078900;28;20051;-61
2021/11/11 05:40:32;;;;;;;7.28;5.88;;;15.40;99.90;;;;;;5098328;28;20042;-61
2021/11/11 05:43:02;;;;;;;13.77;7.13;;;15.40;99.90;;;;;;5100194;28;20096;-62
2021/11/11 05:45:31;;;;;;;11.07;7.53;;;15.40;99.90;;;;;;5083349;28;20057;-61
2021/11/11 05:48:01;;;;;;;9.57;6.95;;;15.40;99.90;;;;;;5099751;28;20490;-61
2021/11/11 05:50:36;;;;;;;11.65;8.18;;;15.40;99.90;;;;;;5099798;28;20047;-61
2021/11/11 05:53:05;;;;;;;9.18;6.57;;;15.40;99.90;;;;;;5082434;28;20430;-61
2021/11/11 05:55:34;;;;;;;9.52;6.95;;;15.40;99.90;;;;;;5099637;28;20063;-61
2021/11/11 05:58:06;;;;;;;10.40;6.10;;;15.40;99.90;;;;;;5083675;28;20046;-61
2021/11/11 06:00:35;;;;;;;9.50;6.40;;;15.50;99.90;;;;;;5099507;28;20048;-61
2021/11/11 06:03:10;;;;;;;8.80;6.10;;;15.50;99.90;;;;;;5099283;28;20043;-61
2021/11/11 06:05:38;;;;;;;9.15;6.13;;;15.50;99.90;;;;;;5099481;28;20436;-62
2021/11/11 06:08:11;;;;;;;10.32;6.10;;;15.50;99.90;;;;;;5099681;28;20039;-61
2021/11/11 06:10:38;;;;;;;9.98;6.32;;;15.50;99.90;;;;;;5065657;28;20061;-61
2021/11/11 06:13:06;;;;;;;12.00;6.22;;;15.50;99.90;;;;;;5099398;28;20118;-61
2021/11/11 06:15:34;;;;;;;8.68;6.38;;;15.60;99.90;;;;;;5082247;28;20413;-61
2021/11/11 06:18:02;;;;;;;9.13;5.63;;;15.50;99.90;;;;;;5117405;28;20035;-61
2021/11/11 06:20:34;;;;;;;7.65;6.07;;;15.50;99.90;;;;;;5099060;28;20048;-61
2021/11/11 06:23:07;;;;;;;;;;;15.60;99.90;;;;;;5067268;28;20080;-61
2021/11/11 06:25:39;;;;;;;8.55;6.32;;;15.60;99.90;;;;;;5082255;28;19919;-61
2021/11/11 06:28:08;;;;;;;9.65;5.85;;;15.60;99.90;;;;;;5099331;28;20032;-61
2021/11/11 06:30:37;;;;;;;9.07;5.90;;;15.70;99.90;;;;;;5082155;28;20071;-61
2021/11/11 06:33:10;;;;;;;9.55;5.72;;;15.60;99.90;;;;;;5098834;28;20043;-61
2021/11/11 06:35:40;;;;;;;7.65;5.80;;;15.70;99.90;;;;;;5098913;28;20112;-61
2021/11/11 06:38:08;;;;;;;9.38;6.03;;;15.70;99.90;;;;;;5116824;28;20044;-61
2021/11/11 06:40:35;;;;;;;8.68;5.40;;;15.80;99.90;;;;;;5116801;28;20054;-61
2021/11/11 06:43:05;;;;;;;12.63;6.45;;;15.90;99.90;;;;;;5098790;28;20046;-62
2021/11/11 06:45:41;;;;;;;9.80;6.53;;;15.90;99.90;;;;;;5098813;28;20050;-61
2021/11/11 06:48:11;;;;;;;8.70;5.57;;;15.90;99.90;;;;;;5097433;28;20054;-61
2021/11/11 06:50:39;;;;;;;10.10;6.03;;;15.90;99.90;;;;;;5098523;28;20039;-61
2021/11/11 06:53:11;;;;;;;8.98;6.82;;;16.00;99.90;;;;;;5116309;28;20040;-61
2021/11/11 06:55:40;;;;;;;8.00;5.97;;;16.00;99.90;;;;;;5081928;28;20047;-61
2021/11/11 06:58:10;;;;;;;10.70;6.68;;;16.00;99.90;;;;;;5098433;28;20424;-61
2021/11/11 07:00:38;;;;;;;7.85;5.72;;;16.00;99.90;;;;;;5081379;28;20142;-61
2021/11/11 07:03:11;;;;;;;7.90;6.13;;;16.10;99.90;;;;;;5098327;28;20077;-61
2021/11/11 07:05:41;;;;;;;9.55;6.72;;;16.10;99.90;;;;;;5098411;28;20459;-61
2021/11/11 07:08:10;;;;;;;8.93;6.90;;;16.20;99.90;;;;;;5116298;28;20047;-60
2021/11/11 07:10:39;;;;;;;14.38;8.73;;;16.20;99.90;;;;;;5098553;28;20044;-62
2021/11/11 07:13:06;;;;;;;7.45;5.90;;;16.30;99.90;;;;;;5116178;28;20466;-62
2021/11/11 07:15:35;;;;;;;7.88;6.28;;;16.30;99.90;;;;;;5116168;28;20055;-61
2021/11/11 07:18:02;;;;;;;10.52;6.05;;;16.40;99.90;;;;;;5116432;28;20039;-60
2021/11/11 07:20:30;;;;;;;10.32;8.05;;;16.50;99.90;;;;;;5116051;28;20416;-60
2021/11/11 07:23:04;;;;;;;13.98;7.28;;;16.50;99.90;;;;;;5116343;28;20036;-61
2021/11/11 07:25:32;;;;;;;18.20;8.10;;;16.60;99.90;;;;;;5116142;28;20397;-64
2021/11/11 07:28:00;;;;;;;14.70;6.03;;;16.70;99.90;;;;;;5098317;28;20036;-62
2021/11/11 07:30:27;;;;;;;9.60;4.78;;;16.70;99.90;;;;;;5116324;28;20131;-63
2021/11/11 07:32:56;;;;;;;9.60;4.60;;;16.90;99.90;;;;;;5098045;28;20051;-63
2021/11/11 07:35:24;;;;;;;8.95;4.28;;;16.90;99.90;;;;;;5097808;28;20046;-63
2021/11/11 07:37:53;;;;;;;7.82;3.45;;;17.00;99.90;;;;;;5080871;28;20039;-62
2021/11/11 07:40:25;;;;;;;8.23;3.53;;;17.10;99.90;;;;;;5115872;28;20052;-63
2021/11/11 07:42:54;;;;;;;6.07;4.30;;;17.10;99.90;;;;;;5115952;28;20040;-62
2021/11/11 07:45:34;;;;;;;13.50;4.20;;;17.30;99.90;;;;;;5097675;28;20067;-62
2021/11/11 07:48:03;;;;;;;9.73;4.07;;;17.30;99.90;;;;;;5080701;28;20048;-62
2021/11/11 07:50:33;;;;;;;5.90;3.45;;;17.40;99.90;;;;;;5097489;28;20040;-62
2021/11/11 07:53:03;;;;;;;7.25;4.28;;;17.50;99.90;;;;;;5097194;28;20080;-62
2021/11/11 07:55:31;;;;;;;5.97;4.20;;;17.60;99.90;;;;;;5080367;28;20130;-62
2021/11/11 07:57:59;;;;;;;6.57;4.57;;;17.70;99.90;;;;;;5097146;28;20043;-62
2021/11/11 08:00:26;;;;;;;7.53;4.22;;;17.70;99.90;;;;;;5080639;28;20462;-62
2021/11/11 08:02:54;;;;;;;7.20;3.95;;;17.70;99.90;;;;;;5096364;28;20047;-62
2021/11/11 08:05:22;;;;;;;7.78;4.78;;;17.70;99.90;;;;;;5115083;28;20043;-62
2021/11/11 08:07:50;;;;;;;7.28;4.30;;;17.70;99.90;;;;;;5097016;28;20495;-62
2021/11/11 08:10:20;;;;;;;12.85;5.38;;;17.70;99.90;;;;;;5097098;28;20051;-62
2021/11/11 08:12:49;;;;;;;6.93;5.00;;;17.70;99.90;;;;;;5097103;28;20069;-62
2021/11/11 08:15:17;;;;;;;6.63;4.40;;;17.70;99.90;;;;;;5115024;28;20048;-62
2021/11/11 08:17:46;;;;;;;6.15;4.40;;;17.80;99.90;;;;;;5115031;28;20042;-62
2021/11/11 08:20:15;;;;;;;5.22;3.80;;;17.80;99.90;;;;;;5079974;28;20432;-62
2021/11/11 08:22:44;;;;;;;6.32;3.80;;;17.80;99.90;;;;;;5115011;28;20063;-62
2021/11/11 08:25:12;;;;;;;6.40;3.90;;;17.90;99.90;;;;;;5079930;28;20047;-62
2021/11/11 08:27:41;;;;;;;7.25;4.72;;;17.90;99.90;;;;;;5114870;28;20040;-62
2021/11/11 08:30:12;;;;;;;7.72;4.28;;;17.90;99.90;;;;;;5096628;28;20117;-62
2021/11/11 08:32:44;;;;;;;5.75;3.70;;;17.90;99.90;;;;;;5114827;28;20039;-62
2021/11/11 08:35:15;;;;;;;5.78;4.20;;;18.00;99.90;;;;;;5096939;28;20067;-62
2021/11/11 08:37:45;;;;;;;7.75;5.28;;;18.00;99.90;;;;;;5096723;28;20039;-62
2021/11/11 08:40:15;;;;;;;8.95;4.03;;;18.00;99.90;;;;;;5114582;28;20061;-62
2021/11/11 08:42:47;;;;;;;9.73;4.72;;;18.10;99.90;;;;;;5073418;28;20051;-62
2021/11/11 08:45:16;;;;;;;8.55;4.72;;;18.10;99.90;;;;;;5096289;28;20359;-62
2021/11/11 08:47:44;;;;;;;7.18;4.75;;;18.10;99.90;;;;;;5096312;28;20471;-62
2021/11/11 08:50:13;;;;;;;7.90;4.40;;;18.10;99.90;;;;;;5096458;28;20078;-62
2021/11/11 08:52:45;;;;;;;8.48;3.92;;;18.20;99.90;;;;;;5096496;28;20093;-62
2021/11/11 08:55:15;;;;;;;7.90;4.93;;;18.20;99.90;;;;;;5096645;28;20035;-63
2021/11/11 08:57:43;;;;;;;7.53;3.78;;;18.20;99.90;;;;;;5079688;28;20078;-61
2021/11/11 09:00:16;;;;;;;6.30;4.18;;;18.20;99.90;;;;;;5114247;28;20396;-62
2021/11/11 09:02:49;;;;;;;9.18;4.20;;;18.30;99.90;;;;;;5096440;28;20040;-62
2021/11/11 09:05:18;;;;;;;7.18;3.85;;;18.30;99.90;;;;;;5114265;28;20104;-62
2021/11/11 09:07:45;;;;;;;7.30;4.60;;;18.30;99.90;;;;;;5114099;28;20043;-61
2021/11/11 09:10:21;;;;;;;8.85;4.22;;;18.30;99.90;;;;;;5114049;28;20476;-61
2021/11/11 09:12:52;;;;;;;7.93;4.15;;;18.30;99.90;;;;;;5096195;28;20089;-61
2021/11/11 09:15:24;;;;;;;8.73;4.40;;;18.30;99.90;;;;;;5095699;28;20055;-62
2021/11/11 09:17:52;;;;;;;5.68;3.47;;;18.30;99.90;;;;;;5114572;28;20522;-61
2021/11/11 09:20:20;;;;;;;8.00;4.82;;;18.30;99.90;;;;;;5096051;28;20040;-61
2021/11/11 09:22:49;;;;;;;6.30;3.97;;;18.30;99.90;;;;;;5114238;28;20445;-62
2021/11/11 09:25:17;;;;;;;5.95;3.85;;;18.30;99.90;;;;;;5114261;28;20051;-62
2021/11/11 09:27:45;;;;;;;6.88;3.90;;;18.20;99.90;;;;;;5079434;28;20397;-61
2021/11/11 09:30:22;;;;;;;8.00;4.10;;;18.20;99.90;;;;;;5095680;28;20050;-62
2021/11/11 09:32:50;;;;;;;6.03;4.03;;;18.20;99.90;;;;;;5078787;28;20051;-61
2021/11/11 09:35:18;;;;;;;6.43;4.35;;;18.20;99.90;;;;;;5113848;28;20497;-62
2021/11/11 09:37:46;;;;;;;7.55;3.88;;;18.20;99.90;;;;;;5096270;28;20528;-61
2021/11/11 09:40:17;;;;;;;6.60;3.95;;;18.30;99.90;;;;;;5095611;28;20130;-62
2021/11/11 09:42:46;;;;;;;7.40;3.60;;;18.30;99.90;;;;;;5079209;28;20036;-61
2021/11/11 09:45:19;;;;;;;6.13;3.67;;;18.30;99.90;;;;;;5078980;28;20097;-62
2021/11/11 09:47:48;;;;;;;6.93;4.18;;;18.30;99.90;;;;;;5078773;28;20060;-62
2021/11/11 09:50:19;;;;;;;7.05;3.97;;;18.40;99.90;;;;;;5095905;28;20509;-62
2021/11/11 09:52:50;;;;;;;8.90;5.53;;;18.40;99.90;;;;;;5113706;28;20044;-61
2021/11/11 10:00:56;;;;;;;11.93;4.88;;;18.60;99.90;;;;;;5101253;28;20051;-62
2021/11/11 10:03:24;;;;;;;8.93;4.40;;;18.60;99.90;;;;;;5086439;28;20058;-62
2021/11/11 10:05:52;;;;;;;6.03;4.07;;;18.70;99.90;;;;;;5086635;28;20043;-61
2021/11/11 10:08:33;;;;;;;6.30;4.93;;;18.70;99.90;;;;;;5081145;28;20052;-62
2021/11/11 10:11:02;;;;;;;6.95;4.30;;;18.80;99.90;;;;;;5059359;28;20048;-62
2021/11/11 10:13:31;;;;;;;8.00;4.10;;;18.80;99.90;;;;;;5100753;28;20040;-62
2021/11/11 10:15:59;;;;;;;8.45;4.28;;;18.80;99.90;;;;;;5102246;28;20036;-63
2021/11/11 10:18:43;;;;;;;4.80;3.40;;;18.90;99.90;;;;;;5071640;28;20056;-61
2021/11/11 10:21:23;;;;;;;9.48;5.10;;;18.90;99.90;;;;;;5074886;28;20449;-59
2021/11/11 10:23:52;;;;;;;7.22;4.30;;;18.90;99.90;;;;;;5093232;28;20166;-59
2021/11/11 10:26:40;;;;;;;5.90;4.47;;;19.00;99.90;;;;;;5075545;28;20390;-60
2021/11/11 10:29:23;;;;;;;9.65;4.78;;;19.00;99.90;;;;;;5070323;28;20394;-59
2021/11/11 10:31:55;;;;;;;7.28;5.05;;;19.00;99.90;;;;;;5109722;28;20063;-60
2021/11/11 10:34:23;;;;;;;8.63;4.82;;;19.10;99.90;;;;;;5117030;28;20046;-60
2021/11/11 10:36:53;;;;;;;12.27;4.82;;;19.10;99.90;;;;;;5112104;28;20043;-60
2021/11/11 10:39:25;;;;;;;6.80;4.60;;;19.10;99.90;;;;;;5093103;28;20512;-60
2021/11/11 10:41:56;;;;;;;8.10;5.43;;;19.20;99.90;;;;;;5068779;28;20101;-60
2021/11/11 10:44:32;;;;;;;8.25;4.63;;;19.10;99.90;;;;;;5098881;28;20066;-60
2021/11/11 10:47:01;;;;;;;;;;;19.10;99.90;;;;;;5090986;28;20075;-61
2021/11/11 10:49:47;;;;;;;9.15;4.35;;;19.20;99.90;;;;;;5090076;28;19920;-61
2021/11/11 10:52:36;;;;;;;7.53;5.33;;;19.20;99.90;;;;;;5087172;28;20492;-61
2021/11/11 10:55:26;;;;;;;6.10;4.40;;;19.20;99.90;;;;;;5102801;28;20040;-61
2021/11/11 10:58:05;;;;;;;7.40;4.72;;;19.20;99.90;;;;;;5107763;28;20160;-62
2021/11/11 11:00:48;;;;;;;6.47;3.30;;;19.10;99.90;;;;;;5085547;28;20123;-61
2021/11/11 11:03:37;;;;;;;9.30;3.72;;;19.10;99.90;;;;;;5072252;28;20051;-61
2021/11/11 11:06:12;;;;;;;9.30;3.58;;;19.10;99.90;;;;;;5061979;28;20072;-61
2021/11/11 11:08:45;;;;;;;7.10;3.22;;;19.10;99.90;;;;;;5061539;28;20044;-61
2021/11/11 11:11:21;;;;;;;7.57;3.70;;;19.10;99.90;;;;;;5078155;28;20055;-61
2021/11/11 11:13:50;;;;;;;6.28;3.00;;;19.00;99.90;;;;;;5061565;28;20101;-61
2021/11/11 11:16:24;;;;;;;4.35;2.83;;;19.00;99.90;;;;;;5095783;28;20059;-61
2021/11/11 11:18:57;;;;;;;8.50;3.05;;;19.00;99.90;;;;;;5102916;28;20089;-61
2021/11/11 11:21:35;;;;;;;6.90;3.85;;;19.10;99.90;;;;;;5080108;28;20364;-62
2021/11/11 11:24:19;;;;;;;5.40;3.00;;;19.10;99.90;;;;;;5096805;28;20126;-62
2021/11/11 11:26:53;;;;;;;7.90;3.75;;;19.00;99.90;;;;;;5054233;28;20135;-61
2021/11/11 11:32:21;;;;;;;7.93;4.60;;;19.10;99.90;;;;;;5116028;28;20482;-61
2021/11/11 11:34:51;;;;;;;9.20;4.75;;;19.10;99.90;;;;;;5097992;28;20059;-61
2021/11/11 11:37:30;;;;;;;14.65;5.63;;;19.10;99.90;;;;;;5093675;28;20044;-62
2021/11/11 11:40:02;;;;;;;6.43;3.88;;;19.10;99.90;;;;;;5062089;28;20047;-61
2021/11/11 11:42:37;;;;;;;8.95;6.32;;;19.20;99.90;;;;;;5115902;28;20040;-61
2021/11/11 11:45:16;;;;;;;10.63;5.88;;;19.20;99.90;;;;;;5115666;28;20050;-62
2021/11/11 11:47:56;;;;;;;9.43;5.38;;;19.20;99.90;;;;;;5097458;28;20047;-61
2021/11/11 11:50:39;;;;;;;9.68;4.95;;;19.20;99.90;;;;;;5082986;28;20043;-62
2021/11/11 11:53:09;;;;;;;7.15;4.22;;;19.20;99.90;;;;;;5105922;28;20044;-61
2021/11/11 11:55:43;;;;;;;8.35;5.63;;;19.20;99.90;;;;;;5060450;28;20152;-61
2021/11/11 12:14:16;;;;;;;13.38;6.25;;;19.10;99.90;;;;;;5100451;28;20495;-61
2021/11/11 12:28:38;;;;;;;7.60;4.80;;;19.10;99.90;;;;;;5114758;28;20077;-61
2021/11/11 12:38:31;;;;;;;9.07;5.53;;;19.10;99.90;;;;;;5076585;28;20047;-61
2021/11/11 12:40:08;;;;;;;15.02;6.40;;;19.10;99.90;;;;;;5094229;28;20051;-61
2021/11/11 12:42:42;;;;;;;11.40;5.78;;;19.10;99.90;;;;;;5075987;28;20490;-60
2021/11/11 12:45:10;;;;;;;9.10;5.22;;;19.10;99.90;;;;;;5094126;28;20090;-60
2021/11/11 12:47:49;;;;;;;10.30;6.47;;;19.20;99.90;;;;;;5094143;28;20067;-60
2021/11/11 12:50:56;;;;;;;10.45;5.22;;;19.20;99.90;;;;;;5093467;28;20101;-60
2021/11/11 12:53:30;;;;;;;8.25;4.97;;;19.20;99.90;;;;;;5076360;28;20052;-60
2021/11/11 12:56:01;;;;;;;7.53;4.63;;;19.20;99.90;;;;;;5094081;28;20040;-61
2021/11/11 12:58:33;;;;;;;8.52;4.68;;;19.20;99.90;;;;;;5075786;28;20055;-61
2021/11/11 13:01:10;;;;;;;6.78;4.22;;;19.20;99.90;;;;;;5076310;28;20044;-61
2021/11/11 13:03:49;;;;;;;8.52;4.47;;;19.20;99.90;;;;;;5076134;28;20072;-61
2021/11/11 13:06:41;;;;;;;10.30;3.90;;;19.30;99.90;;;;;;5076112;28;20036;-61
2021/11/11 13:09:24;;;;;;;7.78;4.78;;;19.30;99.90;;;;;;5093993;28;20053;-62
2021/11/11 13:12:04;;;;;;;8.60;3.70;;;19.40;99.90;;;;;;5098269;28;20044;-61
2021/11/11 13:14:35;;;;;;;6.95;3.95;;;19.40;99.90;;;;;;5098682;28;20048;-62
2021/11/11 13:17:41;;;;;;;6.47;3.38;;;19.40;99.90;;;;;;5082631;28;20043;-62
2021/11/11 13:20:22;;;;;;;5.57;3.40;;;19.30;99.90;;;;;;5087907;28;20078;-61
2021/11/11 13:23:13;;;;;;;6.50;4.03;;;19.30;99.90;;;;;;5107488;28;20039;-61
2021/11/11 13:26:07;;;;;;;6.43;4.00;;;19.20;99.90;;;;;;5096263;28;20494;-61
2021/11/11 16:22:46;;;;;;;9.70;5.55;;;18.00;99.90;;;;;;5093427;28;20067;-60
2021/11/11 16:28:00;;;;;;;14.47;8.40;;;18.10;99.90;;;;;;5093296;28;20437;-61
2021/11/11 16:30:28;;;;;;;20.75;10.82;;;18.10;99.90;;;;;;5094462;28;20286;-61
2021/11/11 16:32:56;;;;;;;18.80;10.20;;;18.10;99.90;;;;;;5094394;28;20040;-60
2021/11/11 16:35:24;;;;;;;18.02;10.23;;;18.00;99.90;;;;;;5093254;28;20048;-62
2021/11/11 16:37:52;;;;;;;15.10;9.82;;;18.00;99.90;;;;;;5094046;28;20058;-60
2021/11/11 16:40:24;;;;;;;16.05;9.50;;;18.00;99.90;;;;;;5093924;28;20123;-61
2021/11/11 16:42:53;;;;;;;17.50;9.40;;;18.00;99.90;;;;;;5093933;28;20478;-60
2021/11/11 16:45:22;;;;;;;17.30;9.48;;;18.00;99.90;;;;;;5094126;28;20055;-60
2021/11/11 16:47:51;;;;;;;16.50;9.43;;;18.00;99.90;;;;;;5092881;28;20106;-60
2021/11/11 16:50:21;;;;;;;20.25;10.13;;;18.00;99.90;;;;;;5092955;28;20105;-60
2021/11/11 16:52:51;;;;;;;15.82;9.48;;;18.00;99.90;;;;;;5093120;28;20123;-60
2021/11/11 16:55:19;;;;;;;13.68;8.20;;;18.00;99.90;;;;;;5111144;28;20036;-60
2021/11/11 16:57:47;;;;;;;13.73;8.32;;;18.00;99.90;;;;;;5097344;28;20055;-60
2021/11/11 17:00:16;;;;;;;12.38;8.68;;;18.00;99.90;;;;;;5107668;28;20044;-60
2021/11/11 17:02:44;;;;;;;15.55;11.45;;;17.90;99.90;;;;;;5109080;28;20552;-60
2021/11/11 17:05:13;;;;;;;22.63;11.95;;;18.00;99.90;;;;;;5093687;28;20039;-61
2021/11/11 17:07:42;;;;;;;26.50;16.02;;;18.00;99.90;;;;;;5075637;28;20058;-60